createdAt,value
2022-11-27T00:01:35.369Z,18.57
2022-11-27T00:04:26.323Z,20.83
2022-11-27T00:07:16.746Z,20.37
2022-11-27T00:10:07.115Z,21.10
2022-11-27T00:12:57.760Z,18.40
2022-11-27T00:15:46.966Z,18.50
2022-11-27T00:18:36.978Z,18.10
2022-11-27T00:21:27.912Z,17.07
2022-11-27T00:24:17.322Z,16.10
2022-11-27T00:27:06.667Z,16.70
2022-11-27T00:29:57.613Z,16.53
2022-11-27T00:32:46.680Z,15.73
2022-11-27T00:35:36.426Z,14.97
2022-11-27T00:38:26.085Z,14.77
2022-11-27T00:41:17.605Z,13.70
2022-11-27T00:44:07.697Z,14.93
2022-11-27T00:46:58.777Z,13.03
2022-11-27T00:49:48.097Z,13.33
2022-11-27T00:52:37.079Z,13.13
2022-11-27T00:55:26.397Z,12.60
2022-11-27T00:58:15.797Z,13.03
2022-11-27T01:01:08.169Z,11.50
2022-11-27T01:04:01.587Z,13.47
2022-11-27T01:06:50.800Z,12.40
2022-11-27T01:09:39.916Z,12.40
2022-11-27T01:12:29.362Z,11.67
2022-11-27T01:15:18.449Z,12.00
2022-11-27T01:18:07.902Z,11.03
2022-11-27T01:20:58.094Z,10.93
2022-11-27T01:23:47.666Z,12.13
2022-11-27T01:26:36.912Z,10.97
2022-11-27T01:29:26.442Z,11.23
2022-11-27T01:32:16.095Z,10.57
2022-11-27T01:35:04.886Z,10.00
2022-11-27T01:37:55.718Z,12.10
2022-11-27T01:40:45.257Z,12.97
2022-11-27T01:43:44.485Z,13.07
2022-11-27T01:46:38.662Z,12.03
2022-11-27T01:49:32.358Z,13.00
2022-11-27T01:52:26.231Z,11.93
2022-11-27T01:55:22.096Z,11.20
2022-11-27T01:58:14.223Z,11.80
2022-11-27T02:01:04.044Z,11.70
2022-11-27T02:03:54.030Z,10.97
2022-11-27T02:06:43.549Z,10.93
2022-11-27T02:09:34.312Z,11.03
2022-11-27T02:12:27.233Z,11.57
2022-11-27T02:15:21.483Z,12.07
2022-11-27T02:18:18.895Z,12.83
2022-11-27T02:21:14.678Z,12.97
2022-11-27T02:24:26.286Z,12.13
2022-11-27T02:27:48.290Z,12.23
2022-11-27T02:30:44.963Z,12.23
2022-11-27T02:33:37.140Z,12.00
2022-11-27T02:36:31.972Z,11.93
2022-11-27T02:39:24.936Z,10.90
2022-11-27T02:42:18.752Z,11.43
2022-11-27T02:45:11.969Z,11.90
2022-11-27T02:48:02.939Z,11.40
2022-11-27T02:50:53.527Z,11.77
2022-11-27T02:53:49.993Z,11.70
2022-11-27T02:56:40.296Z,11.70
2022-11-27T02:59:32.837Z,11.90
2022-11-27T03:02:27.946Z,11.87
2022-11-27T03:05:22.013Z,11.70
2022-11-27T03:08:19.049Z,11.40
2022-11-27T03:11:10.393Z,10.67
2022-11-27T03:14:03.825Z,11.33
2022-11-27T03:17:05.165Z,13.63
2022-11-27T03:19:58.852Z,12.33
2022-11-27T03:22:50.246Z,12.77
2022-11-27T03:25:39.562Z,12.30
2022-11-27T03:28:31.031Z,12.10
2022-11-27T03:31:20.139Z,12.47
2022-11-27T03:34:09.559Z,11.53
2022-11-27T03:36:58.591Z,11.77
2022-11-27T03:39:49.496Z,10.93
2022-11-27T03:42:47.334Z,11.13
2022-11-27T03:45:42.195Z,10.53
2022-11-27T03:48:37.916Z,11.30
2022-11-27T03:51:37.153Z,11.47
2022-11-27T03:54:36.845Z,11.10
2022-11-27T03:57:31.962Z,10.73
2022-11-27T04:00:22.774Z,10.37
2022-11-27T04:03:14.406Z,10.83
2022-11-27T04:06:03.790Z,11.47
2022-11-27T04:08:53.507Z,10.13
2022-11-27T04:11:42.670Z,10.10
2022-11-27T04:14:35.228Z,10.67
2022-11-27T04:17:24.520Z,11.17
2022-11-27T04:20:15.429Z,9.53
2022-11-27T04:23:04.879Z,10.40
2022-11-27T04:25:53.584Z,10.77
2022-11-27T04:28:42.808Z,11.07
2022-11-27T04:31:33.800Z,10.67
2022-11-27T04:34:23.356Z,9.97
2022-11-27T04:37:12.585Z,10.43
2022-11-27T04:40:02.403Z,9.20
2022-11-27T04:42:52.155Z,10.47
2022-11-27T04:45:41.804Z,8.87
2022-11-27T04:48:32.384Z,9.60
2022-11-27T04:51:20.888Z,9.13
2022-11-27T04:54:10.134Z,9.63
2022-11-27T04:56:59.516Z,9.10
2022-11-27T04:59:50.152Z,10.03
2022-11-27T05:02:39.869Z,9.53
2022-11-27T05:05:30.892Z,8.63
2022-11-27T05:08:20.701Z,9.37
2022-11-27T05:11:13.101Z,8.93
2022-11-27T05:14:18.192Z,8.83
2022-11-27T05:17:07.529Z,8.97
2022-11-27T05:19:56.821Z,9.43
2022-11-27T05:22:48.260Z,9.87
2022-11-27T05:25:38.070Z,9.77
2022-11-27T05:28:27.682Z,9.77
2022-11-27T05:31:17.112Z,10.97
2022-11-27T05:34:06.859Z,9.90
2022-11-27T05:36:55.595Z,9.80
2022-11-27T05:39:46.485Z,9.53
2022-11-27T05:42:35.287Z,11.00
2022-11-27T05:45:25.075Z,10.43
2022-11-27T05:48:14.797Z,10.87
2022-11-27T05:51:05.013Z,10.47
2022-11-27T05:53:53.585Z,10.57
2022-11-27T05:56:43.992Z,11.03
2022-11-27T05:59:33.329Z,10.53
2022-11-27T06:02:27.910Z,10.70
2022-11-27T06:05:18.868Z,10.53
2022-11-27T06:08:07.872Z,10.43
2022-11-27T06:10:57.256Z,10.13
2022-11-27T06:13:48.925Z,10.90
2022-11-27T06:16:38.748Z,10.70
2022-11-27T06:19:28.333Z,11.20
2022-11-27T06:22:17.417Z,9.70
2022-11-27T06:25:07.259Z,10.90
2022-11-27T06:27:56.511Z,10.43
2022-11-27T06:30:47.096Z,10.40
2022-11-27T06:33:36.803Z,10.30
2022-11-27T06:36:31.420Z,10.30
2022-11-27T06:39:20.734Z,10.80
2022-11-27T06:42:10.094Z,10.23
2022-11-27T06:44:59.869Z,9.57
2022-11-27T06:47:51.005Z,10.63
2022-11-27T06:50:40.040Z,11.03
2022-11-27T06:53:29.247Z,10.00
2022-11-27T06:56:19.806Z,10.20
2022-11-27T06:59:09.652Z,11.20
2022-11-27T07:01:58.774Z,9.60
2022-11-27T07:04:49.868Z,10.40
2022-11-27T07:07:42.439Z,9.83
2022-11-27T07:10:35.939Z,10.40
2022-11-27T07:13:25.577Z,8.97
2022-11-27T07:16:15.311Z,10.30
2022-11-27T07:19:06.177Z,10.17
2022-11-27T07:21:57.158Z,10.27
2022-11-27T07:24:46.124Z,10.53
2022-11-27T07:27:35.351Z,10.47
2022-11-27T07:30:24.427Z,9.20
2022-11-27T07:33:13.860Z,11.20
2022-11-27T07:36:04.833Z,12.10
2022-11-27T07:38:55.308Z,10.77
2022-11-27T07:41:44.654Z,11.27
2022-11-27T07:44:33.935Z,10.00
2022-11-27T07:47:22.886Z,12.00
2022-11-27T07:50:13.401Z,11.90
2022-11-27T07:53:02.493Z,11.00
2022-11-27T07:55:52.999Z,11.13
2022-11-27T07:58:42.174Z,11.37
2022-11-27T08:01:31.865Z,10.13
2022-11-27T08:04:21.554Z,11.23
2022-11-27T08:07:10.994Z,11.57
2022-11-27T08:10:00.344Z,11.53
2022-11-27T08:12:51.639Z,12.27
2022-11-27T08:15:41.119Z,12.27
2022-11-27T08:18:30.900Z,13.50
2022-11-27T08:21:19.897Z,13.77
2022-11-27T08:24:09.543Z,14.13
2022-11-27T08:26:58.923Z,12.97
2022-11-27T08:29:49.736Z,14.03
2022-11-27T08:32:40.712Z,14.87
2022-11-27T08:35:29.934Z,14.57
2022-11-27T08:38:19.027Z,12.93
2022-11-27T08:41:09.601Z,14.00
2022-11-27T08:43:59.080Z,13.27
2022-11-27T08:46:49.742Z,15.00
2022-11-27T08:49:42.527Z,13.53
2022-11-27T08:52:33.830Z,14.70
2022-11-27T08:55:22.921Z,14.10
2022-11-27T08:58:12.197Z,15.27
2022-11-27T09:01:01.375Z,14.07
2022-11-27T09:03:53.261Z,13.87
2022-11-27T09:06:44.977Z,14.90
2022-11-27T09:09:33.920Z,13.10
2022-11-27T09:12:23.848Z,13.73
2022-11-27T09:15:13.795Z,14.53
2022-11-27T09:18:02.769Z,12.57
2022-11-27T09:20:58.987Z,13.37
2022-11-27T09:23:48.240Z,12.37
2022-11-27T09:26:36.991Z,12.27
2022-11-27T09:29:27.847Z,10.93
2022-11-27T09:32:17.187Z,12.30
2022-11-27T09:35:07.142Z,10.67
2022-11-27T09:37:57.604Z,11.63
2022-11-27T09:40:49.872Z,12.53
2022-11-27T09:43:45.922Z,15.27
2022-11-27T09:46:40.349Z,14.47
2022-11-27T09:49:35.107Z,15.37
2022-11-27T09:52:28.017Z,15.77
2022-11-27T09:55:25.211Z,15.87
2022-11-27T09:58:18.430Z,16.80
2022-11-27T10:01:18.171Z,17.17
2022-11-27T10:04:08.255Z,16.70
2022-11-27T10:07:08.386Z,18.40
2022-11-27T10:10:08.476Z,17.17
2022-11-27T10:13:08.164Z,16.67
2022-11-27T10:16:02.672Z,17.40
2022-11-27T10:18:55.816Z,16.13
2022-11-27T10:21:51.095Z,17.98
2022-11-27T10:24:46.049Z,17.08
2022-11-27T10:27:42.274Z,18.50
2022-11-27T10:30:38.074Z,15.95
2022-11-27T10:33:32.343Z,16.08
2022-11-27T10:36:32.414Z,18.50
2022-11-27T10:39:30.466Z,18.85
2022-11-27T10:42:26.280Z,19.23
2022-11-27T10:45:23.760Z,18.17
2022-11-27T10:48:14.855Z,17.73
2022-11-27T10:51:04.408Z,18.35
2022-11-27T10:53:55.797Z,17.83
2022-11-27T10:56:57.605Z,16.67
2022-11-27T10:59:52.316Z,16.23
2022-11-27T11:02:42.589Z,16.17
2022-11-27T11:06:04.212Z,16.95
2022-11-27T11:08:44.121Z,16.45
2022-11-27T11:11:33.549Z,17.15
2022-11-27T11:14:23.688Z,22.20
2022-11-27T11:17:18.851Z,19.13
2022-11-27T11:20:16.860Z,21.58
2022-11-27T11:23:08.710Z,20.00
2022-11-27T11:25:59.222Z,17.05
2022-11-27T11:28:53.209Z,18.17
2022-11-27T11:31:42.554Z,17.83
2022-11-27T11:34:32.626Z,15.05
2022-11-27T11:37:24.669Z,14.00
2022-11-27T11:40:25.827Z,14.77
2022-11-27T11:43:26.403Z,16.52
2022-11-27T11:46:22.579Z,16.63
2022-11-27T11:49:21.140Z,14.52
2022-11-27T11:52:37.228Z,14.27
2022-11-27T11:55:32.648Z,14.00
2022-11-27T11:58:38.605Z,14.07
2022-11-27T12:01:54.567Z,14.20
2022-11-27T12:05:11.091Z,15.57
2022-11-27T12:08:21.467Z,15.85
2022-11-27T12:11:16.286Z,18.70
2022-11-27T12:14:15.226Z,20.15
2022-11-27T12:17:19.901Z,19.60
2022-11-27T12:20:18.671Z,17.10
2022-11-27T12:23:35.656Z,18.02
2022-11-27T12:26:34.421Z,16.92
2022-11-27T12:29:47.171Z,17.30
2022-11-27T12:33:00.869Z,17.25
2022-11-27T12:36:00.543Z,15.57
2022-11-27T12:39:12.189Z,15.35
2022-11-27T12:42:21.764Z,14.18
2022-11-27T12:45:20.341Z,14.10
2022-11-27T12:48:16.308Z,13.70
2022-11-27T12:51:11.108Z,13.07
2022-11-27T12:54:04.525Z,13.98
2022-11-27T12:56:58.941Z,12.07
2022-11-27T12:59:55.986Z,12.50
2022-11-27T13:02:51.555Z,15.15
2022-11-27T13:05:44.209Z,14.18
2022-11-27T13:08:52.115Z,13.20
2022-11-27T13:11:42.991Z,14.75
2022-11-27T13:14:37.320Z,22.70
2022-11-27T13:17:33.955Z,18.05
2022-11-27T13:20:31.513Z,16.98
2022-11-27T13:23:20.882Z,16.88
2022-11-27T13:26:22.008Z,14.50
2022-11-27T13:29:26.414Z,11.95
2022-11-27T13:32:23.371Z,9.60
2022-11-27T13:35:23.605Z,11.10
2022-11-27T13:38:15.452Z,9.23
2022-11-27T13:41:06.698Z,8.85
2022-11-27T13:43:57.895Z,9.05
2022-11-27T13:46:54.000Z,9.43
2022-11-27T13:49:43.731Z,9.48
2022-11-27T13:52:35.140Z,9.77
2022-11-27T13:55:29.210Z,10.18
2022-11-27T13:58:30.375Z,10.88
2022-11-27T14:01:21.596Z,10.68
2022-11-27T14:04:11.461Z,10.88
2022-11-27T14:07:06.672Z,11.95
2022-11-27T14:10:07.202Z,11.10
2022-11-27T14:13:00.871Z,9.48
2022-11-27T14:16:02.235Z,9.32
2022-11-27T14:18:53.245Z,9.07
2022-11-27T14:21:44.816Z,8.95
2022-11-27T14:24:41.789Z,9.05
2022-11-27T14:27:36.967Z,8.90
2022-11-27T14:30:35.245Z,9.40
2022-11-27T14:33:25.738Z,9.27
2022-11-27T14:36:24.668Z,9.98
2022-11-27T14:39:22.985Z,10.82
2022-11-27T14:42:28.227Z,11.20
2022-11-27T14:45:21.826Z,9.95
2022-11-27T14:48:21.321Z,9.77
2022-11-27T14:51:15.534Z,10.57
2022-11-27T14:54:06.651Z,10.57
2022-11-27T14:56:56.485Z,11.80
2022-11-27T14:59:46.155Z,12.13
2022-11-27T15:02:37.192Z,11.35
2022-11-27T15:05:29.073Z,12.40
2022-11-27T15:08:18.980Z,12.07
2022-11-27T15:11:08.103Z,11.63
2022-11-27T15:14:00.475Z,12.65
2022-11-27T15:16:53.327Z,11.37
2022-11-27T15:19:44.608Z,11.97
2022-11-27T15:22:33.937Z,12.17
2022-11-27T15:25:39.381Z,12.13
2022-11-27T15:28:36.342Z,12.67
2022-11-27T15:31:31.083Z,12.57
2022-11-27T15:34:24.348Z,11.53
2022-11-27T15:37:24.874Z,13.23
2022-11-27T15:40:26.875Z,12.90
2022-11-27T15:43:16.864Z,14.90
2022-11-27T15:46:08.758Z,13.88
2022-11-27T15:48:57.584Z,13.53
2022-11-27T15:51:47.301Z,13.87
2022-11-27T15:54:37.200Z,12.77
2022-11-27T15:57:26.536Z,12.70
2022-11-27T16:00:16.384Z,13.57
2022-11-27T16:03:05.705Z,13.47
2022-11-27T16:05:54.792Z,13.87
2022-11-27T16:08:45.895Z,12.13
2022-11-27T16:11:36.147Z,12.60
2022-11-27T16:14:25.340Z,13.73
2022-11-27T16:17:14.697Z,11.67
2022-11-27T16:20:04.235Z,13.80
2022-11-27T16:22:53.959Z,12.53
2022-11-27T16:25:43.186Z,13.43
2022-11-27T16:28:34.454Z,13.40
2022-11-27T16:31:23.965Z,13.07
2022-11-27T16:34:13.350Z,13.90
2022-11-27T16:37:02.438Z,12.67
2022-11-27T16:39:51.525Z,13.63
2022-11-27T16:42:41.606Z,13.87
2022-11-27T16:45:32.488Z,14.50
2022-11-27T16:48:21.902Z,13.97
2022-11-27T16:51:14.101Z,12.90
2022-11-27T16:54:05.463Z,13.33
2022-11-27T16:56:54.986Z,13.50
2022-11-27T16:59:44.062Z,13.10
2022-11-27T17:02:36.123Z,12.50
2022-11-27T17:05:25.291Z,13.20
2022-11-27T17:08:14.520Z,13.73
2022-11-27T17:11:10.517Z,13.87
2022-11-27T17:14:01.266Z,15.47
2022-11-27T17:16:50.668Z,18.10
2022-11-27T17:19:41.568Z,18.63
2022-11-27T17:22:30.952Z,18.87
2022-11-27T17:25:19.794Z,17.93
2022-11-27T17:28:08.975Z,17.20
2022-11-27T17:30:58.168Z,17.70
2022-11-27T17:33:47.879Z,16.00
2022-11-27T17:36:38.784Z,16.97
2022-11-27T17:39:27.893Z,19.90
2022-11-27T17:42:22.404Z,16.63
2022-11-27T17:45:13.100Z,17.87
2022-11-27T17:48:02.273Z,16.63
2022-11-27T17:50:51.835Z,21.60
2022-11-27T17:53:42.934Z,19.93
2022-11-27T17:56:32.447Z,19.60
2022-11-27T17:59:21.914Z,21.83
2022-11-27T18:02:12.506Z,21.30
2022-11-27T18:05:01.895Z,24.20
2022-11-27T18:07:51.099Z,23.87
2022-11-27T18:10:42.141Z,22.30
2022-11-27T18:13:32.840Z,21.83
2022-11-27T18:16:24.287Z,22.63
2022-11-27T18:19:13.421Z,22.37
2022-11-27T18:22:02.783Z,23.10
2022-11-27T18:24:52.328Z,21.93
2022-11-27T18:27:42.928Z,23.97
2022-11-27T18:30:31.735Z,23.83
2022-11-27T18:33:20.537Z,21.20
2022-11-27T18:36:12.036Z,23.10
2022-11-27T18:39:04.767Z,24.80
2022-11-27T18:41:53.591Z,23.90
2022-11-27T18:44:45.327Z,21.37
2022-11-27T18:47:34.954Z,22.63
2022-11-27T18:50:29.349Z,22.67
2022-11-27T18:53:19.390Z,23.13
2022-11-27T18:56:11.738Z,23.17
2022-11-27T18:59:03.395Z,23.90
2022-11-27T19:01:54.431Z,22.80
2022-11-27T19:04:45.184Z,28.17
2022-11-27T19:07:34.638Z,25.53
2022-11-27T19:10:24.354Z,25.07
2022-11-27T19:13:13.459Z,23.70
2022-11-27T19:16:06.425Z,26.40
2022-11-27T19:18:57.775Z,24.00
2022-11-27T19:21:47.411Z,22.90
2022-11-27T19:24:36.839Z,23.03
2022-11-27T19:27:26.255Z,21.93
2022-11-27T19:30:16.582Z,23.67
2022-11-27T19:33:06.197Z,22.30
2022-11-27T19:36:01.243Z,22.20
2022-11-27T19:38:56.480Z,26.17
2022-11-27T19:41:45.719Z,25.23
2022-11-27T19:44:34.822Z,24.67
2022-11-27T19:47:24.522Z,22.07
2022-11-27T19:50:14.026Z,22.77
2022-11-27T19:53:07.445Z,23.70
2022-11-27T19:55:56.827Z,24.90
2022-11-27T19:58:46.092Z,21.87
2022-11-27T20:01:35.049Z,21.20
2022-11-27T20:04:24.082Z,22.30
2022-11-27T20:07:13.506Z,25.40
2022-11-27T20:10:04.318Z,24.67
2022-11-27T20:12:53.765Z,23.20
2022-11-27T20:15:42.916Z,22.93
2022-11-27T20:18:32.094Z,21.23
2022-11-27T20:21:23.144Z,20.93
2022-11-27T20:24:12.704Z,21.00
2022-11-27T20:27:03.093Z,23.03
2022-11-27T20:29:54.008Z,22.07
2022-11-27T20:32:43.629Z,21.03
2022-11-27T20:35:32.673Z,19.73
2022-11-27T20:38:21.757Z,18.80
2022-11-27T20:41:12.902Z,20.43
2022-11-27T20:44:04.886Z,19.47
2022-11-27T20:46:54.086Z,19.20
2022-11-27T20:49:43.925Z,18.87
2022-11-27T20:52:33.231Z,19.23
2022-11-27T20:55:22.794Z,17.93
2022-11-27T20:58:11.671Z,16.90
2022-11-27T21:01:02.990Z,17.53
2022-11-27T21:03:53.505Z,16.17
2022-11-27T21:06:44.281Z,16.80
2022-11-27T21:09:34.605Z,17.10
2022-11-27T21:12:23.762Z,17.23
2022-11-27T21:15:14.295Z,17.87
2022-11-27T21:18:05.163Z,18.23
2022-11-27T21:20:54.319Z,18.10
2022-11-27T21:23:43.931Z,18.23
2022-11-27T21:26:33.530Z,21.73
2022-11-27T21:29:26.010Z,19.27
2022-11-27T21:32:18.271Z,18.60
2022-11-27T21:35:10.024Z,19.20
2022-11-27T21:37:59.132Z,20.83
2022-11-27T21:40:48.294Z,20.27
2022-11-27T21:43:37.436Z,21.43
2022-11-27T21:46:28.199Z,22.33
2022-11-27T21:49:17.976Z,21.70
2022-11-27T21:52:09.069Z,22.40
2022-11-27T21:54:58.059Z,21.93
2022-11-27T21:57:46.819Z,21.33
2022-11-27T22:00:36.765Z,22.30
2022-11-27T22:03:25.921Z,21.67
2022-11-27T22:06:16.815Z,20.13
2022-11-27T22:09:11.988Z,20.50
2022-11-27T22:12:04.980Z,19.53
2022-11-27T22:14:54.090Z,19.07
2022-11-27T22:17:42.922Z,20.03
2022-11-27T22:20:31.876Z,20.30
2022-11-27T22:23:20.733Z,18.17
2022-11-27T22:26:13.142Z,19.50
2022-11-27T22:29:02.093Z,20.27
2022-11-27T22:31:53.265Z,18.83
2022-11-27T22:34:42.624Z,19.03
2022-11-27T22:37:32.110Z,19.30
2022-11-27T22:40:21.850Z,20.73
2022-11-27T22:43:12.452Z,19.27
2022-11-27T22:46:02.143Z,19.90
2022-11-27T22:48:55.494Z,19.20
2022-11-27T22:51:44.891Z,18.67
2022-11-27T22:54:33.916Z,18.87
2022-11-27T22:57:23.110Z,19.17
2022-11-27T23:03:35.946Z,20.43
2022-11-27T23:06:25.800Z,18.97
2022-11-27T23:09:14.993Z,18.63
2022-11-27T23:12:04.847Z,18.83
2022-11-27T23:14:56.151Z,18.93
2022-11-27T23:17:46.308Z,18.80
2022-11-27T23:20:36.119Z,18.43
2022-11-27T23:23:25.893Z,18.27
2022-11-27T23:26:18.403Z,18.23
2022-11-27T23:29:07.872Z,17.13
2022-11-27T23:31:56.668Z,17.33
2022-11-27T23:34:47.661Z,18.10
2022-11-27T23:37:37.321Z,17.80
2022-11-27T23:40:26.034Z,18.10
2022-11-27T23:43:15.497Z,18.53
2022-11-27T23:46:04.937Z,18.17
2022-11-27T23:48:56.108Z,17.60
2022-11-27T23:51:47.191Z,17.47
2022-11-27T23:54:36.257Z,17.57
2022-11-27T23:57:25.428Z,17.20
